sensor_id;sensor_type;location;lat;lon;timestamp;P1;durP1;ratioP1;P2;durP2;ratioP2
28960;SDS011;16068;42.896;20.868;2023-01-15T00:02:08;68.07;;;38.42;;
28960;SDS011;16068;42.896;20.868;2023-01-15T00:04:54;65.15;;;39.25;;
28960;SDS011;16068;42.896;20.868;2023-01-15T00:07:39;71.55;;;41.10;;
28960;SDS011;16068;42.896;20.868;2023-01-15T00:10:25;78.43;;;41.70;;
28960;SDS011;16068;42.896;20.868;2023-01-15T00:13:11;75.25;;;40.78;;
28960;SDS011;16068;42.896;20.868;2023-01-15T00:16:07;67.68;;;40.60;;
28960;SDS011;16068;42.896;20.868;2023-01-15T00:19:00;66.20;;;39.22;;
28960;SDS011;16068;42.896;20.868;2023-01-15T00:21:48;71.55;;;40.22;;
28960;SDS011;16068;42.896;20.868;2023-01-15T00:24:34;71.78;;;39.47;;
28960;SDS011;16068;42.896;20.868;2023-01-15T00:27:40;78.50;;;41.72;;
28960;SDS011;16068;42.896;20.868;2023-01-15T00:30:28;77.10;;;41.75;;
28960;SDS011;16068;42.896;20.868;2023-01-15T00:33:14;76.47;;;41.58;;
28960;SDS011;16068;42.896;20.868;2023-01-15T00:35:59;78.28;;;42.30;;
28960;SDS011;16068;42.896;20.868;2023-01-15T00:38:45;88.40;;;46.33;;
28960;SDS011;16068;42.896;20.868;2023-01-15T00:41:31;77.18;;;41.47;;
28960;SDS011;16068;42.896;20.868;2023-01-15T00:44:17;75.22;;;42.88;;
28960;SDS011;16068;42.896;20.868;2023-01-15T00:47:04;78.35;;;42.00;;
28960;SDS011;16068;42.896;20.868;2023-01-15T00:49:52;73.30;;;40.97;;
28960;SDS011;16068;42.896;20.868;2023-01-15T00:52:38;75.15;;;41.28;;
28960;SDS011;16068;42.896;20.868;2023-01-15T00:55:25;74.45;;;41.95;;
28960;SDS011;16068;42.896;20.868;2023-01-15T00:58:11;74.85;;;40.42;;
28960;SDS011;16068;42.896;20.868;2023-01-15T01:00:57;66.82;;;38.92;;
28960;SDS011;16068;42.896;20.868;2023-01-15T01:03:46;72.82;;;39.78;;
28960;SDS011;16068;42.896;20.868;2023-01-15T01:06:33;63.78;;;37.78;;
28960;SDS011;16068;42.896;20.868;2023-01-15T01:13:28;64.25;;;37.83;;
28960;SDS011;16068;42.896;20.868;2023-01-15T01:16:31;72.45;;;38.08;;
28960;SDS011;16068;42.896;20.868;2023-01-15T01:19:22;65.82;;;36.63;;
28960;SDS011;16068;42.896;20.868;2023-01-15T01:22:21;65.43;;;37.42;;
28960;SDS011;16068;42.896;20.868;2023-01-15T01:25:07;74.32;;;37.42;;
28960;SDS011;16068;42.896;20.868;2023-01-15T01:27:54;63.63;;;35.28;;
28960;SDS011;16068;42.896;20.868;2023-01-15T01:30:47;69.75;;;36.15;;
28960;SDS011;16068;42.896;20.868;2023-01-15T01:33:33;63.83;;;33.47;;
28960;SDS011;16068;42.896;20.868;2023-01-15T01:36:19;59.72;;;32.08;;
28960;SDS011;16068;42.896;20.868;2023-01-15T01:39:06;59.70;;;30.88;;
28960;SDS011;16068;42.896;20.868;2023-01-15T01:41:53;62.03;;;30.00;;
28960;SDS011;16068;42.896;20.868;2023-01-15T01:47:29;55.55;;;29.67;;
28960;SDS011;16068;42.896;20.868;2023-01-15T01:50:16;64.38;;;29.38;;
28960;SDS011;16068;42.896;20.868;2023-01-15T01:53:06;53.55;;;27.48;;
28960;SDS011;16068;42.896;20.868;2023-01-15T01:55:54;48.63;;;26.15;;
28960;SDS011;16068;42.896;20.868;2023-01-15T01:58:46;48.38;;;27.77;;
28960;SDS011;16068;42.896;20.868;2023-01-15T02:01:34;46.33;;;26.98;;
28960;SDS011;16068;42.896;20.868;2023-01-15T02:04:20;52.15;;;27.60;;
28960;SDS011;16068;42.896;20.868;2023-01-15T02:07:07;64.72;;;31.92;;
28960;SDS011;16068;42.896;20.868;2023-01-15T02:09:55;61.72;;;32.90;;
28960;SDS011;16068;42.896;20.868;2023-01-15T02:12:40;62.63;;;34.15;;
28960;SDS011;16068;42.896;20.868;2023-01-15T02:15:49;68.68;;;34.60;;
28960;SDS011;16068;42.896;20.868;2023-01-15T02:24:36;75.85;;;37.83;;
28960;SDS011;16068;42.896;20.868;2023-01-15T02:27:35;73.70;;;38.83;;
28960;SDS011;16068;42.896;20.868;2023-01-15T02:30:33;75.47;;;38.60;;
28960;SDS011;16068;42.896;20.868;2023-01-15T02:33:30;66.50;;;36.33;;
28960;SDS011;16068;42.896;20.868;2023-01-15T02:36:23;72.72;;;37.28;;
28960;SDS011;16068;42.896;20.868;2023-01-15T02:39:12;68.90;;;39.22;;
28960;SDS011;16068;42.896;20.868;2023-01-15T02:42:00;77.95;;;43.03;;
28960;SDS011;16068;42.896;20.868;2023-01-15T02:44:53;78.25;;;43.22;;
28960;SDS011;16068;42.896;20.868;2023-01-15T02:47:42;83.28;;;44.75;;
28960;SDS011;16068;42.896;20.868;2023-01-15T02:50:30;81.60;;;43.13;;
28960;SDS011;16068;42.896;20.868;2023-01-15T02:53:24;69.57;;;40.10;;
28960;SDS011;16068;42.896;20.868;2023-01-15T02:56:15;69.70;;;39.60;;
28960;SDS011;16068;42.896;20.868;2023-01-15T02:59:09;69.93;;;37.83;;
28960;SDS011;16068;42.896;20.868;2023-01-15T03:02:03;68.03;;;38.63;;
28960;SDS011;16068;42.896;20.868;2023-01-15T03:08:06;67.93;;;39.05;;
28960;SDS011;16068;42.896;20.868;2023-01-15T03:11:06;68.72;;;38.90;;
28960;SDS011;16068;42.896;20.868;2023-01-15T03:14:21;74.63;;;41.67;;
28960;SDS011;16068;42.896;20.868;2023-01-15T03:17:23;71.55;;;42.10;;
28960;SDS011;16068;42.896;20.868;2023-01-15T03:20:18;69.38;;;40.65;;
28960;SDS011;16068;42.896;20.868;2023-01-15T03:23:09;73.75;;;41.65;;
28960;SDS011;16068;42.896;20.868;2023-01-15T03:25:56;74.38;;;42.35;;
28960;SDS011;16068;42.896;20.868;2023-01-15T03:28:43;71.95;;;41.20;;
28960;SDS011;16068;42.896;20.868;2023-01-15T03:31:30;68.32;;;41.08;;
28960;SDS011;16068;42.896;20.868;2023-01-15T03:34:18;66.00;;;39.53;;
28960;SDS011;16068;42.896;20.868;2023-01-15T03:37:11;68.68;;;39.13;;
28960;SDS011;16068;42.896;20.868;2023-01-15T03:40:15;65.32;;;39.88;;
28960;SDS011;16068;42.896;20.868;2023-01-15T03:43:04;67.60;;;38.93;;
28960;SDS011;16068;42.896;20.868;2023-01-15T03:49:44;75.32;;;42.80;;
28960;SDS011;16068;42.896;20.868;2023-01-15T03:59:18;83.55;;;47.15;;
28960;SDS011;16068;42.896;20.868;2023-01-15T04:02:14;94.53;;;49.28;;
28960;SDS011;16068;42.896;20.868;2023-01-15T04:05:01;85.65;;;47.35;;
28960;SDS011;16068;42.896;20.868;2023-01-15T04:07:49;87.95;;;47.45;;
28960;SDS011;16068;42.896;20.868;2023-01-15T04:14:27;83.13;;;44.28;;
28960;SDS011;16068;42.896;20.868;2023-01-15T04:17:15;81.70;;;45.90;;
28960;SDS011;16068;42.896;20.868;2023-01-15T04:20:01;86.30;;;46.80;;
28960;SDS011;16068;42.896;20.868;2023-01-15T04:22:47;71.68;;;43.25;;
28960;SDS011;16068;42.896;20.868;2023-01-15T04:25:33;85.63;;;47.08;;
28960;SDS011;16068;42.896;20.868;2023-01-15T04:28:18;76.60;;;43.33;;
28960;SDS011;16068;42.896;20.868;2023-01-15T04:31:04;71.60;;;41.70;;
28960;SDS011;16068;42.896;20.868;2023-01-15T04:33:51;64.90;;;38.33;;
28960;SDS011;16068;42.896;20.868;2023-01-15T04:36:38;61.22;;;37.45;;
28960;SDS011;16068;42.896;20.868;2023-01-15T04:39:24;56.80;;;35.97;;
28960;SDS011;16068;42.896;20.868;2023-01-15T04:42:13;60.70;;;35.67;;
28960;SDS011;16068;42.896;20.868;2023-01-15T04:45:42;62.35;;;36.10;;
28960;SDS011;16068;42.896;20.868;2023-01-15T04:48:32;59.35;;;35.25;;
28960;SDS011;16068;42.896;20.868;2023-01-15T04:51:18;55.58;;;33.75;;
28960;SDS011;16068;42.896;20.868;2023-01-15T04:54:05;62.58;;;35.40;;
28960;SDS011;16068;42.896;20.868;2023-01-15T04:56:56;59.45;;;36.75;;
28960;SDS011;16068;42.896;20.868;2023-01-15T04:59:42;65.18;;;38.22;;
28960;SDS011;16068;42.896;20.868;2023-01-15T05:02:32;55.78;;;34.38;;
28960;SDS011;16068;42.896;20.868;2023-01-15T05:05:22;54.13;;;32.85;;
28960;SDS011;16068;42.896;20.868;2023-01-15T05:08:17;58.55;;;34.10;;
28960;SDS011;16068;42.896;20.868;2023-01-15T05:11:04;67.82;;;38.10;;
28960;SDS011;16068;42.896;20.868;2023-01-15T05:13:51;70.35;;;39.92;;
28960;SDS011;16068;42.896;20.868;2023-01-15T05:16:37;64.20;;;37.45;;
28960;SDS011;16068;42.896;20.868;2023-01-15T05:22:43;61.65;;;37.53;;
28960;SDS011;16068;42.896;20.868;2023-01-15T05:25:28;57.58;;;34.67;;
28960;SDS011;16068;42.896;20.868;2023-01-15T05:28:14;68.30;;;40.00;;
28960;SDS011;16068;42.896;20.868;2023-01-15T05:31:04;67.32;;;38.08;;
28960;SDS011;16068;42.896;20.868;2023-01-15T05:34:11;65.30;;;38.03;;
28960;SDS011;16068;42.896;20.868;2023-01-15T05:36:57;69.00;;;38.08;;
28960;SDS011;16068;42.896;20.868;2023-01-15T05:39:43;71.05;;;38.47;;
28960;SDS011;16068;42.896;20.868;2023-01-15T05:42:29;61.08;;;38.30;;
28960;SDS011;16068;42.896;20.868;2023-01-15T05:45:14;69.43;;;38.92;;
28960;SDS011;16068;42.896;20.868;2023-01-15T05:48:00;63.10;;;37.35;;
28960;SDS011;16068;42.896;20.868;2023-01-15T05:50:46;59.38;;;36.95;;
28960;SDS011;16068;42.896;20.868;2023-01-15T05:53:31;62.55;;;35.83;;
28960;SDS011;16068;42.896;20.868;2023-01-15T05:56:19;62.15;;;37.55;;
28960;SDS011;16068;42.896;20.868;2023-01-15T05:59:05;65.80;;;37.85;;
28960;SDS011;16068;42.896;20.868;2023-01-15T06:05:17;62.38;;;36.72;;
28960;SDS011;16068;42.896;20.868;2023-01-15T06:08:06;71.28;;;38.63;;
28960;SDS011;16068;42.896;20.868;2023-01-15T06:10:52;65.53;;;37.80;;
28960;SDS011;16068;42.896;20.868;2023-01-15T06:13:38;62.20;;;38.25;;
28960;SDS011;16068;42.896;20.868;2023-01-15T06:16:24;58.85;;;35.58;;
28960;SDS011;16068;42.896;20.868;2023-01-15T06:19:11;61.28;;;36.38;;
28960;SDS011;16068;42.896;20.868;2023-01-15T06:21:58;62.38;;;36.08;;
28960;SDS011;16068;42.896;20.868;2023-01-15T06:24:48;57.38;;;35.05;;
28960;SDS011;16068;42.896;20.868;2023-01-15T06:27:46;59.65;;;35.53;;
28960;SDS011;16068;42.896;20.868;2023-01-15T06:30:33;62.80;;;35.15;;
28960;SDS011;16068;42.896;20.868;2023-01-15T06:33:22;59.78;;;36.00;;
28960;SDS011;16068;42.896;20.868;2023-01-15T06:36:16;60.38;;;35.83;;
28960;SDS011;16068;42.896;20.868;2023-01-15T06:39:05;65.47;;;35.83;;
28960;SDS011;16068;42.896;20.868;2023-01-15T06:41:51;63.28;;;37.70;;
28960;SDS011;16068;42.896;20.868;2023-01-15T06:49:22;69.30;;;35.97;;
28960;SDS011;16068;42.896;20.868;2023-01-15T06:52:08;67.57;;;37.63;;
28960;SDS011;16068;42.896;20.868;2023-01-15T06:54:54;70.63;;;39.30;;
28960;SDS011;16068;42.896;20.868;2023-01-15T06:57:40;62.78;;;36.28;;
28960;SDS011;16068;42.896;20.868;2023-01-15T07:00:26;70.40;;;38.03;;
28960;SDS011;16068;42.896;20.868;2023-01-15T07:03:12;71.40;;;37.38;;
28960;SDS011;16068;42.896;20.868;2023-01-15T07:05:58;66.35;;;35.60;;
28960;SDS011;16068;42.896;20.868;2023-01-15T07:12:10;62.20;;;35.30;;
28960;SDS011;16068;42.896;20.868;2023-01-15T07:14:56;64.32;;;36.63;;
28960;SDS011;16068;42.896;20.868;2023-01-15T07:17:41;57.75;;;35.13;;
28960;SDS011;16068;42.896;20.868;2023-01-15T07:20:27;59.83;;;35.58;;
28960;SDS011;16068;42.896;20.868;2023-01-15T07:23:13;73.28;;;38.25;;
28960;SDS011;16068;42.896;20.868;2023-01-15T07:26:01;80.22;;;45.08;;
28960;SDS011;16068;42.896;20.868;2023-01-15T07:28:47;74.35;;;44.55;;
28960;SDS011;16068;42.896;20.868;2023-01-15T07:31:33;92.45;;;50.10;;
28960;SDS011;16068;42.896;20.868;2023-01-15T07:34:18;80.28;;;44.35;;
28960;SDS011;16068;42.896;20.868;2023-01-15T07:37:04;91.90;;;48.58;;
28960;SDS011;16068;42.896;20.868;2023-01-15T07:39:50;76.65;;;42.55;;
28960;SDS011;16068;42.896;20.868;2023-01-15T07:42:36;78.32;;;43.97;;
28960;SDS011;16068;42.896;20.868;2023-01-15T07:46:02;79.57;;;45.92;;
28960;SDS011;16068;42.896;20.868;2023-01-15T07:49:10;68.30;;;39.13;;
28960;SDS011;16068;42.896;20.868;2023-01-15T07:52:35;77.07;;;41.28;;
28960;SDS011;16068;42.896;20.868;2023-01-15T07:55:23;79.97;;;44.58;;
28960;SDS011;16068;42.896;20.868;2023-01-15T07:58:09;85.70;;;47.10;;
28960;SDS011;16068;42.896;20.868;2023-01-15T08:00:55;85.65;;;44.70;;
28960;SDS011;16068;42.896;20.868;2023-01-15T08:03:41;77.32;;;46.10;;
28960;SDS011;16068;42.896;20.868;2023-01-15T08:06:27;78.32;;;43.35;;
28960;SDS011;16068;42.896;20.868;2023-01-15T08:09:13;76.70;;;42.22;;
28960;SDS011;16068;42.896;20.868;2023-01-15T08:11:58;77.35;;;41.53;;
28960;SDS011;16068;42.896;20.868;2023-01-15T08:15:04;74.50;;;42.58;;
28960;SDS011;16068;42.896;20.868;2023-01-15T08:18:00;88.38;;;48.58;;
28960;SDS011;16068;42.896;20.868;2023-01-15T08:20:46;69.47;;;37.78;;
28960;SDS011;16068;42.896;20.868;2023-01-15T08:23:32;90.93;;;46.67;;
28960;SDS011;16068;42.896;20.868;2023-01-15T08:26:18;78.45;;;45.05;;
28960;SDS011;16068;42.896;20.868;2023-01-15T08:29:04;60.15;;;35.40;;
28960;SDS011;16068;42.896;20.868;2023-01-15T08:31:49;113.50;;;61.33;;
28960;SDS011;16068;42.896;20.868;2023-01-15T08:34:35;51.28;;;29.85;;
28960;SDS011;16068;42.896;20.868;2023-01-15T08:37:21;54.42;;;29.58;;
28960;SDS011;16068;42.896;20.868;2023-01-15T08:40:10;55.40;;;29.95;;
28960;SDS011;16068;42.896;20.868;2023-01-15T08:42:56;50.20;;;27.90;;
28960;SDS011;16068;42.896;20.868;2023-01-15T08:45:41;50.00;;;28.73;;
28960;SDS011;16068;42.896;20.868;2023-01-15T08:48:28;45.67;;;26.08;;
28960;SDS011;16068;42.896;20.868;2023-01-15T08:51:14;38.75;;;21.83;;
28960;SDS011;16068;42.896;20.868;2023-01-15T08:54:00;40.63;;;23.50;;
28960;SDS011;16068;42.896;20.868;2023-01-15T08:56:46;38.00;;;21.83;;
28960;SDS011;16068;42.896;20.868;2023-01-15T08:59:32;42.40;;;22.92;;
28960;SDS011;16068;42.896;20.868;2023-01-15T09:02:18;37.72;;;22.77;;
28960;SDS011;16068;42.896;20.868;2023-01-15T09:05:04;42.28;;;24.17;;
28960;SDS011;16068;42.896;20.868;2023-01-15T09:07:50;37.25;;;20.38;;
28960;SDS011;16068;42.896;20.868;2023-01-15T09:10:36;34.42;;;21.52;;
28960;SDS011;16068;42.896;20.868;2023-01-15T09:13:22;42.40;;;23.55;;
28960;SDS011;16068;42.896;20.868;2023-01-15T09:16:08;37.03;;;22.80;;
28960;SDS011;16068;42.896;20.868;2023-01-15T09:18:54;39.58;;;23.40;;
28960;SDS011;16068;42.896;20.868;2023-01-15T09:21:40;39.22;;;23.30;;
28960;SDS011;16068;42.896;20.868;2023-01-15T09:24:26;36.08;;;22.23;;
28960;SDS011;16068;42.896;20.868;2023-01-15T09:27:12;38.65;;;22.95;;
28960;SDS011;16068;42.896;20.868;2023-01-15T09:29:58;46.40;;;26.40;;
28960;SDS011;16068;42.896;20.868;2023-01-15T09:32:44;42.05;;;24.05;;
28960;SDS011;16068;42.896;20.868;2023-01-15T09:35:29;41.10;;;22.88;;
28960;SDS011;16068;42.896;20.868;2023-01-15T09:38:16;41.97;;;23.83;;
28960;SDS011;16068;42.896;20.868;2023-01-15T09:41:06;45.03;;;23.63;;
28960;SDS011;16068;42.896;20.868;2023-01-15T09:44:21;49.35;;;25.70;;
28960;SDS011;16068;42.896;20.868;2023-01-15T09:47:15;38.35;;;22.40;;
28960;SDS011;16068;42.896;20.868;2023-01-15T09:56:24;40.78;;;23.20;;
28960;SDS011;16068;42.896;20.868;2023-01-15T09:59:27;42.67;;;23.05;;
28960;SDS011;16068;42.896;20.868;2023-01-15T10:11:17;38.65;;;23.40;;
28960;SDS011;16068;42.896;20.868;2023-01-15T10:14:05;44.53;;;25.13;;
28960;SDS011;16068;42.896;20.868;2023-01-15T10:16:54;44.53;;;25.23;;
28960;SDS011;16068;42.896;20.868;2023-01-15T10:19:40;42.03;;;24.30;;
28960;SDS011;16068;42.896;20.868;2023-01-15T10:26:13;48.78;;;25.92;;
28960;SDS011;16068;42.896;20.868;2023-01-15T10:32:51;47.03;;;25.38;;
28960;SDS011;16068;42.896;20.868;2023-01-15T10:35:52;48.53;;;25.10;;
28960;SDS011;16068;42.896;20.868;2023-01-15T10:38:44;47.50;;;26.30;;
28960;SDS011;16068;42.896;20.868;2023-01-15T10:45:02;43.22;;;23.55;;
28960;SDS011;16068;42.896;20.868;2023-01-15T10:47:56;39.28;;;24.00;;
28960;SDS011;16068;42.896;20.868;2023-01-15T10:50:49;42.90;;;23.25;;
28960;SDS011;16068;42.896;20.868;2023-01-15T10:56:58;38.63;;;23.25;;
28960;SDS011;16068;42.896;20.868;2023-01-15T11:02:43;40.78;;;22.08;;
28960;SDS011;16068;42.896;20.868;2023-01-15T11:05:30;42.13;;;22.17;;
28960;SDS011;16068;42.896;20.868;2023-01-15T11:08:24;40.53;;;21.70;;
28960;SDS011;16068;42.896;20.868;2023-01-15T11:11:39;42.83;;;20.27;;
28960;SDS011;16068;42.896;20.868;2023-01-15T11:14:52;29.48;;;18.35;;
28960;SDS011;16068;42.896;20.868;2023-01-15T11:17:56;34.72;;;20.10;;
28960;SDS011;16068;42.896;20.868;2023-01-15T11:21:01;34.70;;;19.60;;
28960;SDS011;16068;42.896;20.868;2023-01-15T11:23:48;35.38;;;19.55;;
28960;SDS011;16068;42.896;20.868;2023-01-15T11:26:34;33.40;;;18.38;;
28960;SDS011;16068;42.896;20.868;2023-01-15T11:29:30;31.30;;;17.63;;
28960;SDS011;16068;42.896;20.868;2023-01-15T11:32:23;34.75;;;19.15;;
28960;SDS011;16068;42.896;20.868;2023-01-15T11:35:22;35.10;;;18.33;;
28960;SDS011;16068;42.896;20.868;2023-01-15T11:38:12;44.95;;;20.98;;
28960;SDS011;16068;42.896;20.868;2023-01-15T11:40:59;30.83;;;18.40;;
28960;SDS011;16068;42.896;20.868;2023-01-15T11:43:56;26.90;;;17.73;;
28960;SDS011;16068;42.896;20.868;2023-01-15T11:47:02;44.08;;;23.17;;
28960;SDS011;16068;42.896;20.868;2023-01-15T11:50:15;36.90;;;19.63;;
28960;SDS011;16068;42.896;20.868;2023-01-15T11:53:25;50.08;;;21.65;;
28960;SDS011;16068;42.896;20.868;2023-01-15T11:56:13;38.20;;;20.65;;
28960;SDS011;16068;42.896;20.868;2023-01-15T11:59:01;50.95;;;26.88;;
28960;SDS011;16068;42.896;20.868;2023-01-15T12:01:50;39.63;;;22.27;;
28960;SDS011;16068;42.896;20.868;2023-01-15T12:04:48;30.73;;;18.67;;
28960;SDS011;16068;42.896;20.868;2023-01-15T12:07:39;48.22;;;23.02;;
28960;SDS011;16068;42.896;20.868;2023-01-15T12:14:20;30.67;;;19.48;;
28960;SDS011;16068;42.896;20.868;2023-01-15T12:32:06;41.42;;;21.70;;
28960;SDS011;16068;42.896;20.868;2023-01-15T12:34:56;41.30;;;23.83;;
28960;SDS011;16068;42.896;20.868;2023-01-15T12:37:47;29.13;;;18.92;;
28960;SDS011;16068;42.896;20.868;2023-01-15T12:40:47;28.85;;;18.95;;
28960;SDS011;16068;42.896;20.868;2023-01-15T12:43:35;38.50;;;22.00;;
28960;SDS011;16068;42.896;20.868;2023-01-15T12:46:41;32.65;;;19.50;;
28960;SDS011;16068;42.896;20.868;2023-01-15T12:49:35;36.13;;;19.90;;
28960;SDS011;16068;42.896;20.868;2023-01-15T12:52:27;35.28;;;18.15;;
28960;SDS011;16068;42.896;20.868;2023-01-15T12:55:23;28.42;;;17.63;;
28960;SDS011;16068;42.896;20.868;2023-01-15T12:58:14;37.28;;;20.50;;
28960;SDS011;16068;42.896;20.868;2023-01-15T13:07:04;37.95;;;20.52;;
28960;SDS011;16068;42.896;20.868;2023-01-15T13:12:52;34.88;;;20.67;;
28960;SDS011;16068;42.896;20.868;2023-01-15T13:15:40;45.30;;;25.15;;
28960;SDS011;16068;42.896;20.868;2023-01-15T13:21:54;46.78;;;26.15;;
28960;SDS011;16068;42.896;20.868;2023-01-15T13:37:43;48.83;;;27.35;;
28960;SDS011;16068;42.896;20.868;2023-01-15T13:40:35;53.78;;;27.33;;
28960;SDS011;16068;42.896;20.868;2023-01-15T13:43:30;63.38;;;30.75;;
28960;SDS011;16068;42.896;20.868;2023-01-15T13:46:18;52.40;;;29.73;;
28960;SDS011;16068;42.896;20.868;2023-01-15T13:49:13;46.47;;;26.02;;
28960;SDS011;16068;42.896;20.868;2023-01-15T13:52:05;45.67;;;21.92;;
28960;SDS011;16068;42.896;20.868;2023-01-15T13:54:53;41.58;;;22.45;;
28960;SDS011;16068;42.896;20.868;2023-01-15T13:57:43;55.05;;;29.17;;
28960;SDS011;16068;42.896;20.868;2023-01-15T14:00:33;45.05;;;25.45;;
28960;SDS011;16068;42.896;20.868;2023-01-15T14:03:29;44.22;;;24.40;;
28960;SDS011;16068;42.896;20.868;2023-01-15T14:06:19;49.92;;;28.02;;
28960;SDS011;16068;42.896;20.868;2023-01-15T14:09:05;53.90;;;25.85;;
28960;SDS011;16068;42.896;20.868;2023-01-15T14:12:01;48.17;;;24.08;;
28960;SDS011;16068;42.896;20.868;2023-01-15T14:18:06;37.33;;;20.85;;
28960;SDS011;16068;42.896;20.868;2023-01-15T14:21:28;44.92;;;23.30;;
28960;SDS011;16068;42.896;20.868;2023-01-15T14:33:44;35.25;;;20.25;;
28960;SDS011;16068;42.896;20.868;2023-01-15T14:36:36;42.97;;;25.02;;
28960;SDS011;16068;42.896;20.868;2023-01-15T14:42:37;44.15;;;23.98;;
28960;SDS011;16068;42.896;20.868;2023-01-15T14:45:43;48.78;;;27.35;;
28960;SDS011;16068;42.896;20.868;2023-01-15T14:51:17;48.63;;;27.42;;
28960;SDS011;16068;42.896;20.868;2023-01-15T14:54:12;46.03;;;24.60;;
28960;SDS011;16068;42.896;20.868;2023-01-15T14:57:00;38.35;;;23.13;;
28960;SDS011;16068;42.896;20.868;2023-01-15T14:59:53;43.35;;;24.85;;
28960;SDS011;16068;42.896;20.868;2023-01-15T15:02:43;53.03;;;27.73;;
28960;SDS011;16068;42.896;20.868;2023-01-15T15:05:30;50.63;;;26.92;;
28960;SDS011;16068;42.896;20.868;2023-01-15T15:08:17;50.90;;;25.67;;
28960;SDS011;16068;42.896;20.868;2023-01-15T15:11:03;56.00;;;29.20;;
28960;SDS011;16068;42.896;20.868;2023-01-15T15:14:11;50.10;;;27.60;;
28960;SDS011;16068;42.896;20.868;2023-01-15T15:16:59;46.15;;;25.15;;
28960;SDS011;16068;42.896;20.868;2023-01-15T15:19:47;45.80;;;25.98;;
28960;SDS011;16068;42.896;20.868;2023-01-15T15:22:38;58.22;;;31.35;;
28960;SDS011;16068;42.896;20.868;2023-01-15T15:25:24;62.03;;;29.55;;
28960;SDS011;16068;42.896;20.868;2023-01-15T15:28:11;58.17;;;28.45;;
28960;SDS011;16068;42.896;20.868;2023-01-15T15:30:57;59.22;;;31.90;;
28960;SDS011;16068;42.896;20.868;2023-01-15T15:33:47;49.47;;;26.73;;
28960;SDS011;16068;42.896;20.868;2023-01-15T15:36:34;56.05;;;30.13;;
28960;SDS011;16068;42.896;20.868;2023-01-15T15:39:34;52.15;;;29.30;;
28960;SDS011;16068;42.896;20.868;2023-01-15T15:43:14;60.15;;;31.50;;
28960;SDS011;16068;42.896;20.868;2023-01-15T15:45:57;63.00;;;32.50;;
28960;SDS011;16068;42.896;20.868;2023-01-15T15:49:04;77.72;;;36.05;;
28960;SDS011;16068;42.896;20.868;2023-01-15T15:51:52;61.92;;;34.08;;
28960;SDS011;16068;42.896;20.868;2023-01-15T15:54:38;66.60;;;35.20;;
28960;SDS011;16068;42.896;20.868;2023-01-15T15:57:25;76.55;;;37.70;;
28960;SDS011;16068;42.896;20.868;2023-01-15T16:00:16;66.63;;;36.08;;
28960;SDS011;16068;42.896;20.868;2023-01-15T16:03:05;79.85;;;39.00;;
28960;SDS011;16068;42.896;20.868;2023-01-15T16:06:03;71.55;;;37.38;;
28960;SDS011;16068;42.896;20.868;2023-01-15T16:08:55;73.70;;;39.53;;
28960;SDS011;16068;42.896;20.868;2023-01-15T16:11:50;79.72;;;39.75;;
28960;SDS011;16068;42.896;20.868;2023-01-15T16:14:37;87.22;;;42.78;;
28960;SDS011;16068;42.896;20.868;2023-01-15T16:17:23;97.63;;;45.53;;
28960;SDS011;16068;42.896;20.868;2023-01-15T16:20:12;93.60;;;44.67;;
28960;SDS011;16068;42.896;20.868;2023-01-15T16:23:00;86.35;;;41.47;;
28960;SDS011;16068;42.896;20.868;2023-01-15T16:33:54;93.40;;;42.42;;
28960;SDS011;16068;42.896;20.868;2023-01-15T16:36:41;87.25;;;42.42;;
28960;SDS011;16068;42.896;20.868;2023-01-15T16:51:57;103.35;;;47.50;;
28960;SDS011;16068;42.896;20.868;2023-01-15T16:54:52;100.60;;;49.13;;
28960;SDS011;16068;42.896;20.868;2023-01-15T16:57:37;108.75;;;50.33;;
28960;SDS011;16068;42.896;20.868;2023-01-15T17:00:27;94.35;;;45.85;;
28960;SDS011;16068;42.896;20.868;2023-01-15T17:03:17;93.45;;;46.53;;
28960;SDS011;16068;42.896;20.868;2023-01-15T17:06:10;89.30;;;44.65;;
28960;SDS011;16068;42.896;20.868;2023-01-15T17:08:56;99.55;;;46.63;;
28960;SDS011;16068;42.896;20.868;2023-01-15T17:11:43;95.47;;;45.53;;
28960;SDS011;16068;42.896;20.868;2023-01-15T17:14:34;92.13;;;43.95;;
28960;SDS011;16068;42.896;20.868;2023-01-15T17:20:07;94.28;;;46.63;;
28960;SDS011;16068;42.896;20.868;2023-01-15T17:22:54;95.53;;;43.90;;
28960;SDS011;16068;42.896;20.868;2023-01-15T17:25:40;109.97;;;49.83;;
28960;SDS011;16068;42.896;20.868;2023-01-15T17:28:27;99.15;;;54.53;;
28960;SDS011;16068;42.896;20.868;2023-01-15T17:31:19;151.98;;;69.50;;
28960;SDS011;16068;42.896;20.868;2023-01-15T17:34:11;143.38;;;67.15;;
28960;SDS011;16068;42.896;20.868;2023-01-15T17:36:57;144.65;;;68.82;;
28960;SDS011;16068;42.896;20.868;2023-01-15T17:39:43;130.02;;;58.58;;
28960;SDS011;16068;42.896;20.868;2023-01-15T17:42:29;118.30;;;51.58;;
28960;SDS011;16068;42.896;20.868;2023-01-15T17:48:09;118.68;;;59.33;;
28960;SDS011;16068;42.896;20.868;2023-01-15T17:50:55;106.75;;;52.92;;
28960;SDS011;16068;42.896;20.868;2023-01-15T17:53:43;106.38;;;54.30;;
28960;SDS011;16068;42.896;20.868;2023-01-15T17:56:29;177.55;;;75.53;;
28960;SDS011;16068;42.896;20.868;2023-01-15T17:59:33;174.88;;;78.93;;
28960;SDS011;16068;42.896;20.868;2023-01-15T18:02:39;140.85;;;69.00;;
28960;SDS011;16068;42.896;20.868;2023-01-15T18:05:45;128.20;;;65.13;;
28960;SDS011;16068;42.896;20.868;2023-01-15T18:08:32;129.57;;;65.75;;
28960;SDS011;16068;42.896;20.868;2023-01-15T18:11:18;149.15;;;72.78;;
28960;SDS011;16068;42.896;20.868;2023-01-15T18:14:04;141.40;;;70.63;;
28960;SDS011;16068;42.896;20.868;2023-01-15T18:16:50;142.63;;;70.22;;
28960;SDS011;16068;42.896;20.868;2023-01-15T18:19:36;132.40;;;66.82;;
28960;SDS011;16068;42.896;20.868;2023-01-15T18:22:22;173.13;;;86.55;;
28960;SDS011;16068;42.896;20.868;2023-01-15T18:25:08;184.63;;;91.55;;
28960;SDS011;16068;42.896;20.868;2023-01-15T18:27:55;220.82;;;109.55;;
28960;SDS011;16068;42.896;20.868;2023-01-15T18:30:41;222.15;;;105.40;;
28960;SDS011;16068;42.896;20.868;2023-01-15T18:33:27;212.18;;;102.50;;
28960;SDS011;16068;42.896;20.868;2023-01-15T18:36:13;226.23;;;110.75;;
28960;SDS011;16068;42.896;20.868;2023-01-15T18:38:59;319.88;;;158.75;;
28960;SDS011;16068;42.896;20.868;2023-01-15T18:41:51;228.70;;;111.97;;
28960;SDS011;16068;42.896;20.868;2023-01-15T18:44:36;223.88;;;112.32;;
28960;SDS011;16068;42.896;20.868;2023-01-15T18:47:41;227.02;;;112.68;;
28960;SDS011;16068;42.896;20.868;2023-01-15T18:50:28;212.18;;;105.32;;
28960;SDS011;16068;42.896;20.868;2023-01-15T18:53:14;206.43;;;104.75;;
28960;SDS011;16068;42.896;20.868;2023-01-15T18:56:03;245.10;;;123.18;;
28960;SDS011;16068;42.896;20.868;2023-01-15T18:58:50;248.73;;;119.60;;
28960;SDS011;16068;42.896;20.868;2023-01-15T19:01:36;237.85;;;116.15;;
28960;SDS011;16068;42.896;20.868;2023-01-15T19:04:23;203.00;;;102.63;;
28960;SDS011;16068;42.896;20.868;2023-01-15T19:07:09;205.20;;;100.90;;